createdAt,value
2022-08-30T00:01:56.212Z,98584.00
2022-08-30T00:04:30.969Z,98580.00
2022-08-30T00:07:06.259Z,98576.00
2022-08-30T00:09:44.674Z,98577.00
2022-08-30T00:12:17.442Z,98569.00
2022-08-30T00:15:01.181Z,98572.00
2022-08-30T00:17:41.046Z,98563.00
2022-08-30T00:20:25.178Z,98564.00
2022-08-30T00:23:00.623Z,98563.00
2022-08-30T00:25:45.498Z,98568.00
2022-08-30T00:28:26.463Z,98568.00
2022-08-30T00:31:00.879Z,98564.00
2022-08-30T00:33:40.914Z,98560.00
2022-08-30T00:36:22.424Z,98557.00
2022-08-30T00:39:04.628Z,98555.00
2022-08-30T00:41:42.534Z,98555.00
2022-08-30T00:44:16.274Z,98562.00
2022-08-30T00:46:48.673Z,98554.00
2022-08-30T00:49:21.696Z,98550.00
2022-08-30T00:51:58.172Z,98551.00
2022-08-30T00:54:43.893Z,98542.00
2022-08-30T00:57:17.758Z,98553.00
2022-08-30T00:59:53.204Z,98561.00
2022-08-30T01:02:36.053Z,98562.00
2022-08-30T01:05:19.248Z,98559.00
2022-08-30T01:07:53.362Z,98562.00
2022-08-30T01:10:26.608Z,98560.00
2022-08-30T01:13:19.613Z,98565.00
2022-08-30T01:16:00.735Z,98567.00
2022-08-30T01:18:55.795Z,98561.00
2022-08-30T01:22:01.197Z,98556.00
2022-08-30T01:24:34.740Z,98559.00
2022-08-30T01:27:18.438Z,98564.00
2022-08-30T01:29:53.975Z,98573.00
2022-08-30T01:32:31.420Z,98575.00
2022-08-30T01:35:07.366Z,98574.00
2022-08-30T01:37:46.302Z,98576.00
2022-08-30T01:40:23.923Z,98576.00
2022-08-30T01:42:59.450Z,98566.00
2022-08-30T01:45:29.512Z,98573.00
2022-08-30T01:48:06.590Z,98580.00
2022-08-30T01:50:46.949Z,98581.00
2022-08-30T01:53:20.611Z,98583.00
2022-08-30T01:55:57.826Z,98561.00
2022-08-30T01:58:41.387Z,98574.00
2022-08-30T02:01:27.711Z,98563.00
2022-08-30T02:04:29.703Z,98562.00
2022-08-30T02:07:22.699Z,98560.00
2022-08-30T02:10:32.857Z,98571.00
2022-08-30T02:14:01.959Z,98574.00
2022-08-30T02:16:44.444Z,98566.00
2022-08-30T02:20:05.176Z,98566.00
2022-08-30T02:22:49.173Z,98565.00
2022-08-30T02:25:32.714Z,98552.00
2022-08-30T02:28:22.803Z,98559.00
2022-08-30T02:31:02.771Z,98568.00
2022-08-30T02:33:55.045Z,98565.00
2022-08-30T02:36:35.146Z,98578.00
2022-08-30T02:39:21.228Z,98566.00
2022-08-30T02:41:57.146Z,98562.00
2022-08-30T02:44:37.046Z,98562.00
2022-08-30T02:47:09.266Z,98553.00
2022-08-30T02:49:42.952Z,98558.00
2022-08-30T02:52:17.998Z,98552.00
2022-08-30T02:54:49.255Z,98553.00
2022-08-30T02:57:28.947Z,98551.00
2022-08-30T03:00:16.431Z,98554.00
2022-08-30T03:03:03.387Z,98548.00
2022-08-30T03:05:57.571Z,98542.00
2022-08-30T03:08:34.041Z,98537.00
2022-08-30T03:11:17.869Z,98528.00
2022-08-30T03:14:04.696Z,98526.00
2022-08-30T03:17:06.235Z,98517.00
2022-08-30T03:19:47.453Z,98521.00
2022-08-30T03:22:21.898Z,98513.00
2022-08-30T03:25:03.950Z,98516.00
2022-08-30T03:27:38.205Z,98519.00
2022-08-30T03:30:18.527Z,98512.00
2022-08-30T03:32:54.004Z,98521.00
2022-08-30T03:35:47.030Z,98522.00
2022-08-30T03:38:28.721Z,98521.00
2022-08-30T03:41:07.535Z,98514.00
2022-08-30T03:44:02.277Z,98514.00
2022-08-30T03:46:48.741Z,98517.00
2022-08-30T03:49:28.593Z,98524.00
2022-08-30T03:52:23.230Z,98530.00
2022-08-30T03:56:46.872Z,98539.00
2022-08-30T03:59:04.395Z,98542.00
2022-08-30T04:02:04.064Z,98549.00
2022-08-30T04:04:42.730Z,98550.00
2022-08-30T04:07:16.945Z,98551.00
2022-08-30T04:09:55.628Z,98551.00
2022-08-30T04:12:51.453Z,98554.00
2022-08-30T04:15:31.181Z,98553.00
2022-08-30T04:18:18.174Z,98553.00
2022-08-30T04:20:56.278Z,98550.00
2022-08-30T04:23:34.453Z,98543.00
2022-08-30T04:26:29.439Z,98547.00
2022-08-30T04:29:00.248Z,98551.00
2022-08-30T04:31:30.483Z,98544.00
2022-08-30T04:34:10.683Z,98548.00
2022-08-30T04:36:41.731Z,98552.00
2022-08-30T04:39:26.793Z,98551.00
2022-08-30T04:41:59.379Z,98553.00
2022-08-30T04:44:30.585Z,98550.00
2022-08-30T04:47:11.387Z,98539.00
2022-08-30T04:49:45.263Z,98546.00
2022-08-30T04:52:23.198Z,98541.00
2022-08-30T04:55:02.023Z,98550.00
2022-08-30T04:57:37.979Z,98550.00
2022-08-30T05:00:21.412Z,98560.00
2022-08-30T05:03:11.000Z,98555.00
2022-08-30T05:05:42.131Z,98556.00
2022-08-30T05:08:25.668Z,98554.00
2022-08-30T05:10:59.269Z,98568.00
2022-08-30T05:13:36.811Z,98563.00
2022-08-30T05:16:23.947Z,98560.00
2022-08-30T05:19:03.495Z,98556.00
2022-08-30T05:21:37.226Z,98556.00
2022-08-30T05:24:13.290Z,98554.00
2022-08-30T05:26:49.191Z,98556.00
2022-08-30T05:29:39.896Z,98548.00
2022-08-30T05:32:23.494Z,98560.00
2022-08-30T05:35:05.799Z,98558.00
2022-08-30T05:37:36.725Z,98562.00
2022-08-30T05:40:13.618Z,98567.00
2022-08-30T05:42:45.547Z,98566.00
2022-08-30T05:45:21.433Z,98560.00
2022-08-30T05:47:59.101Z,98572.00
2022-08-30T05:50:42.140Z,98563.00
2022-08-30T05:53:25.473Z,98563.00
2022-08-30T05:56:32.249Z,98563.00
2022-08-30T05:59:22.232Z,98559.00
2022-08-30T06:02:11.360Z,98561.00
2022-08-30T06:04:57.190Z,98555.00
2022-08-30T06:07:51.274Z,98551.00
2022-08-30T06:10:55.040Z,98556.00
2022-08-30T06:13:53.586Z,98549.00
2022-08-30T06:16:32.729Z,98551.00
2022-08-30T06:19:21.526Z,98551.00
2022-08-30T06:22:02.335Z,98552.00
2022-08-30T06:24:56.883Z,98552.00
2022-08-30T06:27:31.345Z,98545.00
2022-08-30T06:30:15.775Z,98549.00
2022-08-30T06:33:10.044Z,98541.00
2022-08-30T06:35:58.553Z,98537.00
2022-08-30T06:38:39.781Z,98546.00
2022-08-30T06:41:46.074Z,98539.00
2022-08-30T06:44:18.864Z,98534.00
2022-08-30T06:46:56.635Z,98550.00
2022-08-30T06:49:27.044Z,98549.00
2022-08-30T06:55:03.970Z,98547.00
2022-08-30T06:57:52.858Z,98553.00
2022-08-30T07:00:33.724Z,98552.00
2022-08-30T07:03:10.633Z,98556.00
2022-08-30T07:06:00.821Z,98554.00
2022-08-30T07:08:40.738Z,98551.00
2022-08-30T07:11:42.357Z,98548.00
2022-08-30T07:14:22.233Z,98554.00
2022-08-30T07:17:34.010Z,98545.00
2022-08-30T07:20:15.433Z,98550.00
2022-08-30T07:23:01.616Z,98542.00
2022-08-30T07:25:36.049Z,98539.00
2022-08-30T07:28:14.217Z,98546.00
2022-08-30T07:31:12.076Z,98544.00
2022-08-30T07:33:57.189Z,98552.00
2022-08-30T07:36:42.065Z,98549.00
2022-08-30T07:39:20.297Z,98551.00
2022-08-30T07:41:56.611Z,98552.00
2022-08-30T07:44:34.724Z,98555.00
2022-08-30T07:47:18.151Z,98558.00
2022-08-30T07:50:11.513Z,98556.00
2022-08-30T07:52:48.175Z,98556.00
2022-08-30T07:55:31.003Z,98559.00
2022-08-30T07:58:05.518Z,98557.00
2022-08-30T08:01:00.937Z,98551.00
2022-08-30T08:03:50.545Z,98554.00
2022-08-30T08:06:35.313Z,98561.00
2022-08-30T08:09:13.611Z,98557.00
2022-08-30T08:11:58.220Z,98562.00
2022-08-30T08:17:34.563Z,98565.00
2022-08-30T08:20:22.162Z,98563.00
2022-08-30T08:23:11.549Z,98567.00
2022-08-30T08:26:05.555Z,98565.00
2022-08-30T08:28:54.690Z,98559.00
2022-08-30T08:31:33.739Z,98559.00
2022-08-30T08:34:28.508Z,98555.00
2022-08-30T08:37:35.116Z,98553.00
2022-08-30T08:40:27.389Z,98555.00
2022-08-30T08:43:30.626Z,98555.00
2022-08-30T08:47:05.341Z,98561.00
2022-08-30T08:50:03.596Z,98554.00
2022-08-30T08:54:05.960Z,98552.00
2022-08-30T08:56:49.384Z,98554.00
2022-08-30T08:59:49.506Z,98558.00
2022-08-30T09:02:51.622Z,98555.00
2022-08-30T09:05:59.895Z,98554.00
2022-08-30T09:08:53.702Z,98547.00
2022-08-30T09:11:51.721Z,98544.00
2022-08-30T09:15:09.502Z,98547.00
2022-08-30T09:18:12.995Z,98548.00
2022-08-30T09:21:07.516Z,98545.00
2022-08-30T09:24:09.369Z,98534.00
2022-08-30T09:26:56.892Z,98540.00
2022-08-30T09:29:40.215Z,98542.00
2022-08-30T09:32:55.670Z,98531.00
2022-08-30T09:36:35.274Z,98535.00
2022-08-30T09:39:43.869Z,98524.00
2022-08-30T09:42:33.635Z,98519.00
2022-08-30T09:45:39.229Z,98521.00
2022-08-30T09:48:40.281Z,98517.00
2022-08-30T09:51:52.769Z,98507.00
2022-08-30T09:54:35.717Z,98507.00
2022-08-30T09:57:36.344Z,98514.00
2022-08-30T10:00:23.494Z,98506.00
2022-08-30T10:03:43.814Z,98506.00
2022-08-30T10:07:11.981Z,98500.00
2022-08-30T10:10:28.043Z,98495.00
2022-08-30T10:13:43.346Z,98492.00
2022-08-30T10:17:03.890Z,98496.00
2022-08-30T10:20:31.362Z,98493.00
2022-08-30T10:23:32.788Z,98484.00
2022-08-30T10:26:51.528Z,98489.00
2022-08-30T10:29:32.632Z,98492.00
2022-08-30T10:32:33.660Z,98490.00
2022-08-30T10:35:17.493Z,98486.00
2022-08-30T10:38:20.448Z,98478.00
2022-08-30T10:41:14.633Z,98472.00
2022-08-30T10:44:29.512Z,98478.00
2022-08-30T10:47:29.742Z,98481.00
2022-08-30T10:50:29.666Z,98477.00
2022-08-30T10:53:16.825Z,98484.00
2022-08-30T10:56:00.932Z,98481.00
2022-08-30T10:58:32.157Z,98478.00
2022-08-30T11:02:04.920Z,98477.00
2022-08-30T11:04:54.348Z,98475.00
2022-08-30T11:08:20.497Z,98470.00
2022-08-30T11:11:42.494Z,98462.00
2022-08-30T11:14:17.100Z,98463.00
2022-08-30T11:16:51.624Z,98465.00
2022-08-30T11:19:38.049Z,98472.00
2022-08-30T11:26:20.545Z,98463.00
2022-08-30T11:28:47.830Z,98470.00
2022-08-30T11:31:20.954Z,98469.00
2022-08-30T11:33:59.569Z,98473.00
2022-08-30T11:36:46.203Z,98459.00
2022-08-30T11:39:50.048Z,98459.00
2022-08-30T11:42:48.299Z,98454.00
2022-08-30T11:45:26.907Z,98461.00
2022-08-30T11:48:28.724Z,98451.00
2022-08-30T11:51:39.657Z,98452.00
2022-08-30T11:54:57.829Z,98451.00
2022-08-30T11:58:07.800Z,98443.00
2022-08-30T12:00:52.951Z,98441.00
2022-08-30T12:03:33.563Z,98440.00
2022-08-30T12:06:08.369Z,98434.00
2022-08-30T12:08:36.172Z,98440.00
2022-08-30T12:11:13.420Z,98429.00
2022-08-30T12:13:43.286Z,98422.00
2022-08-30T12:16:19.938Z,98426.00
2022-08-30T12:19:18.999Z,98428.00
2022-08-30T12:22:01.347Z,98430.00
2022-08-30T12:24:43.712Z,98428.00
2022-08-30T12:27:33.330Z,98431.00
2022-08-30T12:30:12.089Z,98435.00
2022-08-30T12:32:48.790Z,98432.00
2022-08-30T12:35:28.307Z,98421.00
2022-08-30T12:38:12.376Z,98426.00
2022-08-30T12:40:54.472Z,98432.00
2022-08-30T12:43:48.540Z,98425.00
2022-08-30T12:46:20.691Z,98417.00
2022-08-30T12:48:49.368Z,98431.00
2022-08-30T12:51:42.988Z,98430.00
2022-08-30T12:54:24.268Z,98426.00
2022-08-30T12:57:25.333Z,98422.00
2022-08-30T12:59:59.673Z,98417.00
2022-08-30T13:02:53.266Z,98419.00
2022-08-30T13:05:44.502Z,98416.00
2022-08-30T13:08:37.194Z,98407.00
2022-08-30T13:11:22.881Z,98406.00
2022-08-30T13:14:32.899Z,98399.00
2022-08-30T13:17:21.849Z,98393.00
2022-08-30T13:20:12.303Z,98385.00
2022-08-30T13:23:06.121Z,98383.00
2022-08-30T13:25:36.116Z,98364.00
2022-08-30T13:28:06.984Z,98367.00
2022-08-30T13:30:35.444Z,98364.00
2022-08-30T13:33:03.580Z,98359.00
2022-08-30T13:35:32.433Z,98355.00
2022-08-30T13:38:02.367Z,98351.00
2022-08-30T13:40:29.782Z,98351.00
2022-08-30T13:42:58.671Z,98347.00
2022-08-30T13:45:42.245Z,98347.00
2022-08-30T13:48:11.766Z,98348.00
2022-08-30T13:50:39.619Z,98339.00
2022-08-30T13:53:09.310Z,98343.00
2022-08-30T13:55:40.693Z,98342.00
2022-08-30T13:58:09.670Z,98345.00
2022-08-30T14:00:40.836Z,98350.00
2022-08-30T14:03:10.648Z,98356.00
2022-08-30T14:05:50.082Z,98354.00
2022-08-30T14:08:47.594Z,98370.00
2022-08-30T14:11:21.128Z,98363.00
2022-08-30T14:16:44.219Z,98364.00
2022-08-30T14:19:15.335Z,98362.00
2022-08-30T14:21:43.486Z,98358.00
2022-08-30T14:24:14.758Z,98349.00
2022-08-30T14:26:52.735Z,98349.00
2022-08-30T14:29:29.751Z,98350.00
2022-08-30T14:31:58.451Z,98350.00
2022-08-30T14:34:27.484Z,98347.00
2022-08-30T14:36:56.290Z,98348.00
2022-08-30T14:39:24.061Z,98347.00
2022-08-30T14:41:55.300Z,98342.00
2022-08-30T14:44:25.125Z,98345.00
2022-08-30T14:46:53.246Z,98343.00
2022-08-30T14:49:21.997Z,98345.00
2022-08-30T14:51:50.930Z,98341.00
2022-08-30T14:54:25.438Z,98341.00
2022-08-30T14:56:55.177Z,98343.00
2022-08-30T14:59:24.824Z,98338.00
2022-08-30T15:01:53.100Z,98334.00
2022-08-30T15:04:21.500Z,98327.00
2022-08-30T15:06:51.722Z,98320.00
2022-08-30T15:09:24.626Z,98316.00
2022-08-30T15:11:58.830Z,98322.00
2022-08-30T15:14:32.316Z,98314.00
2022-08-30T15:17:02.785Z,98314.00
2022-08-30T15:19:33.141Z,98313.00
2022-08-30T15:22:05.692Z,98315.00
2022-08-30T15:24:34.625Z,98300.00
2022-08-30T15:27:03.185Z,98308.00
2022-08-30T15:29:31.828Z,98313.00
2022-08-30T15:32:01.741Z,98311.00
2022-08-30T15:34:31.519Z,98307.00
2022-08-30T15:36:59.115Z,98306.00
2022-08-30T15:39:26.793Z,98301.00
2022-08-30T15:41:57.363Z,98308.00
2022-08-30T15:44:27.813Z,98303.00
2022-08-30T15:46:55.184Z,98305.00
2022-08-30T15:49:24.562Z,98310.00
2022-08-30T15:51:54.685Z,98312.00
2022-08-30T15:54:23.915Z,98320.00
2022-08-30T15:56:59.087Z,98315.00
2022-08-30T15:59:31.166Z,98317.00
2022-08-30T16:01:58.755Z,98323.00
2022-08-30T16:04:26.895Z,98327.00
2022-08-30T16:06:57.912Z,98322.00
2022-08-30T16:09:30.003Z,98325.00
2022-08-30T16:12:03.170Z,98332.00
2022-08-30T16:14:33.639Z,98333.00
2022-08-30T16:17:02.052Z,98334.00
2022-08-30T16:19:29.761Z,98340.00
2022-08-30T16:21:57.772Z,98340.00
2022-08-30T16:24:25.953Z,98351.00
2022-08-30T16:26:54.096Z,98350.00
2022-08-30T16:29:21.857Z,98356.00
2022-08-30T16:31:49.896Z,98356.00
2022-08-30T16:34:22.337Z,98353.00
2022-08-30T16:36:49.935Z,98353.00
2022-08-30T16:39:17.789Z,98348.00
2022-08-30T16:41:46.433Z,98355.00
2022-08-30T16:44:16.031Z,98351.00
2022-08-30T16:46:53.261Z,98347.00
2022-08-30T16:49:23.370Z,98346.00
2022-08-30T16:51:53.486Z,98359.00
2022-08-30T16:54:21.178Z,98350.00
2022-08-30T16:56:48.825Z,98356.00
2022-08-30T16:59:16.793Z,98357.00
2022-08-30T17:01:44.899Z,98360.00
2022-08-30T17:04:13.941Z,98361.00
2022-08-30T17:06:50.401Z,98367.00
2022-08-30T17:09:19.472Z,98369.00
2022-08-30T17:11:48.621Z,98376.00
2022-08-30T17:14:22.948Z,98373.00
2022-08-30T17:17:00.646Z,98387.00
2022-08-30T17:19:29.808Z,98384.00
2022-08-30T17:21:58.466Z,98370.00
2022-08-30T17:24:27.188Z,98374.00
2022-08-30T17:26:54.640Z,98377.00
2022-08-30T17:29:22.000Z,98377.00
2022-08-30T17:31:51.013Z,98379.00
2022-08-30T17:34:22.414Z,98391.00
2022-08-30T17:36:52.594Z,98392.00
2022-08-30T17:39:21.864Z,98407.00
2022-08-30T17:41:50.712Z,98406.00
2022-08-30T17:44:28.480Z,98416.00
2022-08-30T17:46:58.264Z,98413.00
2022-08-30T17:49:29.024Z,98412.00
2022-08-30T17:51:59.808Z,98414.00
2022-08-30T17:54:31.199Z,98417.00
2022-08-30T17:56:59.630Z,98406.00
2022-08-30T17:59:31.497Z,98407.00
2022-08-30T18:02:02.860Z,98409.00
2022-08-30T18:04:30.541Z,98413.00
2022-08-30T18:06:58.760Z,98411.00
2022-08-30T18:09:33.163Z,98425.00
2022-08-30T18:12:01.384Z,98430.00
2022-08-30T18:14:28.854Z,98433.00
2022-08-30T18:16:56.165Z,98429.00
2022-08-30T18:19:27.342Z,98433.00
2022-08-30T18:21:55.778Z,98437.00
2022-08-30T18:24:24.876Z,98441.00
2022-08-30T18:26:54.703Z,98434.00
2022-08-30T18:29:29.558Z,98448.00
2022-08-30T18:32:03.388Z,98446.00
2022-08-30T18:34:32.352Z,98456.00
2022-08-30T18:37:01.009Z,98454.00
2022-08-30T18:39:28.849Z,98468.00
2022-08-30T18:42:06.129Z,98467.00
2022-08-30T18:44:35.128Z,98477.00
2022-08-30T18:47:05.477Z,98475.00
2022-08-30T18:49:36.598Z,98479.00
2022-08-30T18:52:09.760Z,98479.00
2022-08-30T18:57:33.647Z,98495.00
2022-08-30T19:00:21.147Z,98498.00
2022-08-30T19:02:48.657Z,98510.00
2022-08-30T19:05:22.781Z,98511.00
2022-08-30T19:07:55.105Z,98523.00
2022-08-30T19:10:27.944Z,98536.00
2022-08-30T19:12:55.866Z,98539.00
2022-08-30T19:15:23.330Z,98543.00
2022-08-30T19:17:50.979Z,98550.00
2022-08-30T19:20:24.426Z,98559.00
2022-08-30T19:25:41.897Z,98555.00
2022-08-30T19:28:11.877Z,98574.00
2022-08-30T19:30:40.359Z,98567.00
2022-08-30T19:33:07.931Z,98576.00
2022-08-30T19:35:39.355Z,98571.00
2022-08-30T19:38:06.673Z,98574.00
2022-08-30T19:40:34.082Z,98568.00
2022-08-30T19:43:01.748Z,98570.00
2022-08-30T19:45:29.114Z,98576.00
2022-08-30T19:47:57.789Z,98574.00
2022-08-30T19:50:26.872Z,98575.00
2022-08-30T19:52:55.256Z,98585.00
2022-08-30T19:55:28.548Z,98571.00
2022-08-30T19:57:57.922Z,98575.00
2022-08-30T20:00:25.899Z,98581.00
2022-08-30T20:02:54.005Z,98586.00
2022-08-30T20:05:22.897Z,98581.00
2022-08-30T20:07:51.386Z,98577.00
2022-08-30T20:10:20.588Z,98588.00
2022-08-30T20:12:49.863Z,98581.00
2022-08-30T20:15:18.753Z,98580.00
2022-08-30T20:18:05.683Z,98585.00
2022-08-30T20:20:36.615Z,98587.00
2022-08-30T20:23:05.897Z,98577.00
2022-08-30T20:24:29.784Z,98489.00
2022-08-30T20:24:33.437Z,98561.00
2022-08-30T20:25:33.828Z,98581.00
2022-08-30T20:28:01.331Z,98584.00
2022-08-30T20:30:28.677Z,98580.00
2022-08-30T20:32:57.264Z,98579.00
2022-08-30T20:35:24.989Z,98574.00
2022-08-30T20:37:54.748Z,98579.00
2022-08-30T20:40:22.197Z,98574.00
2022-08-30T20:42:52.012Z,98570.00
2022-08-30T20:45:19.396Z,98575.00
2022-08-30T20:47:46.751Z,98574.00
2022-08-30T20:50:16.744Z,98575.00
2022-08-30T20:52:44.797Z,98569.00
2022-08-30T20:55:14.333Z,98568.00
2022-08-30T20:57:42.050Z,98559.00
2022-08-30T21:00:13.721Z,98569.00
2022-08-30T21:02:46.304Z,98567.00
2022-08-30T21:05:15.599Z,98565.00
2022-08-30T21:07:46.644Z,98555.00
2022-08-30T21:10:23.103Z,98559.00
2022-08-30T21:12:54.042Z,98546.00
2022-08-30T21:15:38.227Z,98551.00
2022-08-30T21:18:15.580Z,98543.00
2022-08-30T21:20:43.750Z,98551.00
2022-08-30T21:23:11.531Z,98551.00
2022-08-30T21:25:41.897Z,98556.00
2022-08-30T21:28:10.139Z,98548.00
2022-08-30T21:30:37.941Z,98558.00
2022-08-30T21:33:08.125Z,98554.00
2022-08-30T21:35:56.044Z,98561.00
2022-08-30T21:38:23.432Z,98565.00
2022-08-30T21:40:51.044Z,98559.00
2022-08-30T21:43:20.445Z,98562.00
2022-08-30T21:45:50.186Z,98568.00
2022-08-30T21:48:17.701Z,98565.00
2022-08-30T21:50:46.491Z,98574.00
2022-08-30T21:53:15.434Z,98583.00
2022-08-30T21:55:44.399Z,98585.00
2022-08-30T21:58:11.870Z,98586.00
2022-08-30T22:00:39.309Z,98585.00
2022-08-30T22:03:06.708Z,98601.00
2022-08-30T22:05:35.049Z,98593.00
2022-08-30T22:08:03.312Z,98594.00
2022-08-30T22:10:33.199Z,98616.00
2022-08-30T22:13:03.630Z,98602.00
2022-08-30T22:15:31.197Z,98618.00
2022-08-30T22:17:58.528Z,98615.00
2022-08-30T22:20:48.521Z,98615.00
2022-08-30T22:23:19.125Z,98623.00
2022-08-30T22:25:47.089Z,98620.00
2022-08-30T22:28:15.162Z,98624.00
2022-08-30T22:30:42.472Z,98613.00
2022-08-30T22:33:09.905Z,98624.00
2022-08-30T22:35:37.827Z,98620.00
2022-08-30T22:38:05.860Z,98618.00
2022-08-30T22:40:33.395Z,98624.00
2022-08-30T22:43:02.108Z,98622.00
2022-08-30T22:45:31.107Z,98628.00
2022-08-30T22:47:58.777Z,98628.00
2022-08-30T22:50:26.087Z,98635.00
2022-08-30T22:52:53.391Z,98626.00
2022-08-30T22:55:20.777Z,98620.00
2022-08-30T22:57:48.084Z,98626.00
2022-08-30T23:00:20.175Z,98628.00
2022-08-30T23:02:52.374Z,98626.00
2022-08-30T23:05:23.702Z,98627.00
2022-08-30T23:07:52.239Z,98614.00
2022-08-30T23:10:19.917Z,98618.00
2022-08-30T23:12:47.332Z,98617.00
2022-08-30T23:15:17.163Z,98611.00
2022-08-30T23:17:44.455Z,98625.00
2022-08-30T23:20:11.997Z,98613.00
2022-08-30T23:22:40.157Z,98618.00
2022-08-30T23:25:27.121Z,98609.00
2022-08-30T23:28:20.573Z,98613.00
2022-08-30T23:31:07.207Z,98621.00
2022-08-30T23:33:53.043Z,98617.00
2022-08-30T23:36:39.002Z,98610.00
2022-08-30T23:39:24.772Z,98601.00
2022-08-30T23:42:10.701Z,98590.00
2022-08-30T23:44:56.531Z,98602.00
2022-08-30T23:47:42.350Z,98596.00
2022-08-30T23:50:28.408Z,98602.00
2022-08-30T23:53:14.375Z,98595.00
2022-08-30T23:56:01.108Z,98595.00
2022-08-30T23:58:50.539Z,98595.00
